James Craik, Argentina
Current Conditions -  °F | °C
As of 3:00 PM on Sunday 25 Jan 2015 (Local Time) from SACO Reporting Station
Few Clouds Few Clouds  
Wind Chill: 91°   Ceiling: Unl
Heat Index: 100°   Visibility: 6mi
Dew Point: 73°   Wind: 12mph
Humidity: 55%   Direction: 50°NE
Pressure: 29.88"   Gusts: NA
Location:  32.15°S, 63.47°W
Report Text: SACO 251800Z 05010KT 9999 FEW030FEW034TCU 33/23 Q1012
Loading
Personal Weather Stations






























Interactive Weather Map New forecast layout! Learn more

10-Day Weather Forecast

Advertisements
Track Severe Weather on mobile